Time;durP1;ratioP1;P1;durP2;ratioP2;P2;SDS_P1;SDS_P2;PMS_P1;PMS_P2;Temp;Humidity;BMP_temperature;BMP_pressure;BME280_temperature;BME280_humidity;BME280_pressure;Samples;Min_cycle;Max_cycle;Signal;HPM_P1;HPM_P2
2023/01/14 00:01:43;;;;;;;16.70;10.93;;;;;;;;;;10398462;28;20449;-47
2023/01/14 00:06:44;;;;;;;18.27;11.25;;;;;;;;;;10408452;28;20483;-48
2023/01/14 00:11:48;;;;;;;17.65;11.15;;;;;;;;;;10407446;28;20031;-48
2023/01/14 00:16:53;;;;;;;16.23;10.32;;;;;;;;;;10405948;28;20457;-47
2023/01/14 00:21:56;;;;;;;18.50;10.63;;;;;;;;;;10398760;28;20021;-50
2023/01/14 00:26:57;;;;;;;18.58;10.15;;;;;;;;;;10377827;28;20189;-42
2023/01/14 00:32:03;;;;;;;17.02;10.10;;;;;;;;;;10398742;28;20037;-44
2023/01/14 00:37:03;;;;;;;16.38;10.45;;;;;;;;;;10405534;28;20033;-44
2023/01/14 00:42:04;;;;;;;20.90;11.02;;;;;;;;;;10406307;28;20022;-44
2023/01/14 00:47:05;;;;;;;17.40;10.75;;;;;;;;;;10406575;28;20026;-43
2023/01/14 00:52:05;;;;;;;16.85;10.38;;;;;;;;;;10406678;28;20092;-59
2023/01/14 00:57:06;;;;;;;17.92;10.77;;;;;;;;;;10407266;28;20033;-59
2023/01/14 01:02:07;;;;;;;15.48;10.00;;;;;;;;;;10407723;28;20052;-57
2023/01/14 01:07:08;;;;;;;13.32;10.18;;;;;;;;;;10407166;28;20114;-59
2023/01/14 01:12:08;;;;;;;16.92;9.57;;;;;;;;;;10407044;28;20544;-56
2023/01/14 01:17:09;;;;;;;14.15;9.27;;;;;;;;;;10398454;28;20099;-59
2023/01/14 01:22:09;;;;;;;16.23;9.55;;;;;;;;;;10406959;28;20500;-43
2023/01/14 01:27:10;;;;;;;13.77;8.98;;;;;;;;;;10396559;28;20026;-58
2023/01/14 01:32:11;;;;;;;11.48;9.27;;;;;;;;;;10405614;28;20435;-47
2023/01/14 01:37:11;;;;;;;13.88;9.52;;;;;;;;;;10406970;28;20030;-59
2023/01/14 01:42:13;;;;;;;18.73;9.95;;;;;;;;;;10402511;28;20025;-58
2023/01/14 01:47:16;;;;;;;14.82;8.90;;;;;;;;;;10405798;28;20029;-57
2023/01/14 01:52:26;;;;;;;19.33;9.32;;;;;;;;;;10401466;28;20060;-44
2023/01/14 01:57:28;;;;;;;17.85;9.65;;;;;;;;;;10410475;28;20489;-43
2023/01/14 02:02:29;;;;;;;15.77;10.13;;;;;;;;;;10412205;28;20026;-59
2023/01/14 02:07:29;;;;;;;17.17;9.80;;;;;;;;;;10413245;28;20037;-58
2023/01/14 02:13:00;;;;;;;13.18;9.43;;;;;;;;;;10412090;28;20025;-59
2023/01/14 02:18:17;;;;;;;13.15;8.48;;;;;;;;;;10412860;28;20034;-55
2023/01/14 02:24:14;;;;;;;13.93;8.65;;;;;;;;;;10408703;28;20101;-48
2023/01/14 02:29:37;;;;;;;12.82;8.90;;;;;;;;;;10404684;28;20113;-47
2023/01/14 02:35:13;;;;;;;13.52;8.95;;;;;;;;;;10400034;28;20048;-45
2023/01/14 02:40:31;;;;;;;11.88;8.85;;;;;;;;;;10410947;28;20037;-44
2023/01/14 02:45:42;;;;;;;13.90;8.17;;;;;;;;;;10410641;28;20033;-45
2023/01/14 02:50:43;;;;;;;11.55;8.77;;;;;;;;;;10405338;28;20040;-58
2023/01/14 02:55:44;;;;;;;13.75;8.23;;;;;;;;;;10399323;28;20073;-55
2023/01/14 03:01:12;;;;;;;12.85;8.43;;;;;;;;;;10399914;28;20032;-56
2023/01/14 03:06:29;;;;;;;12.67;8.00;;;;;;;;;;10396855;28;20052;-54
2023/01/14 03:11:54;;;;;;;12.60;8.45;;;;;;;;;;10406940;28;20473;-51
2023/01/14 03:17:04;;;;;;;12.68;8.32;;;;;;;;;;10409256;28;20030;-49
2023/01/14 03:22:07;;;;;;;9.32;7.63;;;;;;;;;;10409164;28;20057;-52
2023/01/14 03:27:19;;;;;;;9.93;7.68;;;;;;;;;;10409349;28;20025;-44
2023/01/14 03:32:50;;;;;;;9.70;7.47;;;;;;;;;;10397418;28;20095;-49
2023/01/14 03:38:32;;;;;;;10.45;7.60;;;;;;;;;;10409133;28;20045;-46
2023/01/14 03:43:51;;;;;;;10.48;7.72;;;;;;;;;;10408595;28;20063;-46
2023/01/14 03:48:52;;;;;;;11.65;8.00;;;;;;;;;;10408216;28;20009;-43
2023/01/14 03:54:18;;;;;;;14.60;8.38;;;;;;;;;;10408729;28;20053;-43
2023/01/14 03:59:27;;;;;;;13.00;7.78;;;;;;;;;;10407773;28;20032;-48
2023/01/14 04:04:29;;;;;;;13.88;7.50;;;;;;;;;;10398099;28;20084;-47
2023/01/14 04:09:30;;;;;;;10.48;6.97;;;;;;;;;;10407211;28;20029;-43
2023/01/14 04:19:50;;;;;;;10.27;7.13;;;;;;;;;;10407677;28;20584;-46
2023/01/14 04:24:50;;;;;;;12.48;6.78;;;;;;;;;;10408934;28;20390;-45
2023/01/14 04:29:51;;;;;;;11.35;7.18;;;;;;;;;;10408133;28;20229;-44
2023/01/14 04:34:51;;;;;;;14.57;8.13;;;;;;;;;;10407683;28;20025;-59
2023/01/14 04:39:52;;;;;;;9.40;7.15;;;;;;;;;;10407755;28;20036;-59
2023/01/14 04:45:01;;;;;;;10.52;6.95;;;;;;;;;;10407534;28;20033;-55
2023/01/14 04:50:30;;;;;;;9.53;6.63;;;;;;;;;;10406705;28;20370;-55
2023/01/14 04:55:22;;;;;;;9.45;6.78;;;;;;;;;;10406739;28;20490;-58
2023/01/14 05:00:22;;;;;;;8.90;6.82;;;;;;;;;;10407470;28;20025;-57
2023/01/14 05:05:23;;;;;;;8.48;6.35;;;;;;;;;;10396848;28;20427;-58
2023/01/14 05:10:24;;;;;;;10.57;6.97;;;;;;;;;;10407487;28;20030;-59
2023/01/14 05:15:31;;;;;;;8.57;6.80;;;;;;;;;;10407025;28;20431;-58
2023/01/14 05:20:33;;;;;;;7.50;6.10;;;;;;;;;;10407461;28;20060;-58
2023/01/14 05:25:34;;;;;;;12.73;7.00;;;;;;;;;;10406672;28;20095;-57
2023/01/14 05:30:35;;;;;;;8.15;6.10;;;;;;;;;;10412195;28;20225;-59
2023/01/14 05:35:36;;;;;;;8.88;6.47;;;;;;;;;;10413668;28;20242;-56
2023/01/14 05:40:37;;;;;;;8.35;6.28;;;;;;;;;;10414875;28;20032;-58
2023/01/14 05:45:41;;;;;;;11.65;7.18;;;;;;;;;;10413984;28;20052;-58
2023/01/14 05:50:42;;;;;;;8.15;6.28;;;;;;;;;;10412988;28;20129;-58
2023/01/14 05:55:43;;;;;;;9.43;6.20;;;;;;;;;;10413115;28;20042;-59
2023/01/14 06:06:23;;;;;;;8.30;5.88;;;;;;;;;;10396035;28;20025;-59
2023/01/14 06:11:26;;;;;;;7.95;5.82;;;;;;;;;;10410786;28;20053;-44
2023/01/14 06:16:39;;;;;;;11.23;5.95;;;;;;;;;;10395423;28;20032;-47
2023/01/14 06:21:40;;;;;;;7.50;5.70;;;;;;;;;;10399489;28;20034;-46
2023/01/14 06:26:41;;;;;;;8.48;6.05;;;;;;;;;;10385390;28;20025;-45
2023/01/14 06:31:42;;;;;;;9.73;6.80;;;;;;;;;;10384500;28;20041;-59
2023/01/14 06:36:42;;;;;;;8.40;5.90;;;;;;;;;;10398837;28;20448;-56
2023/01/14 06:41:43;;;;;;;7.93;5.75;;;;;;;;;;10405641;28;20041;-56
2023/01/14 06:46:43;;;;;;;7.78;5.72;;;;;;;;;;10391069;28;20029;-57
2023/01/14 06:51:44;;;;;;;8.07;6.07;;;;;;;;;;10400918;28;20037;-55
2023/01/14 06:56:44;;;;;;;8.60;6.10;;;;;;;;;;10385817;28;20045;-58
2023/01/14 07:01:45;;;;;;;7.47;5.30;;;;;;;;;;10392419;28;20033;-55
2023/01/14 07:06:45;;;;;;;6.95;5.20;;;;;;;;;;10399971;28;20022;-57
2023/01/14 07:11:46;;;;;;;6.47;5.65;;;;;;;;;;10408304;28;20087;-55
2023/01/14 07:16:47;;;;;;;6.50;5.43;;;;;;;;;;10407452;28;20044;-58
2023/01/14 07:21:47;;;;;;;7.63;5.85;;;;;;;;;;10410024;28;20087;-59
2023/01/14 07:26:48;;;;;;;7.57;5.38;;;;;;;;;;10397603;28;20477;-59
2023/01/14 07:31:48;;;;;;;7.82;5.60;;;;;;;;;;10388702;28;20457;-59
2023/01/14 07:36:49;;;;;;;8.38;5.30;;;;;;;;;;10406177;28;20392;-55
2023/01/14 07:41:49;;;;;;;7.10;5.40;;;;;;;;;;10374857;28;20477;-60
2023/01/14 07:46:55;;;;;;;5.45;4.50;;;;;;;;;;10381734;28;20473;-55
2023/01/14 07:51:55;;;;;;;6.15;5.30;;;;;;;;;;10392585;28;20049;-60
2023/01/14 07:56:56;;;;;;;7.15;5.32;;;;;;;;;;10387030;28;20033;-59
2023/01/14 08:01:56;;;;;;;6.40;5.05;;;;;;;;;;10382372;28;20030;-56
2023/01/14 08:13:13;;;;;;;5.72;4.82;;;;;;;;;;10377156;28;20033;-59
2023/01/14 08:18:14;;;;;;;6.93;5.10;;;;;;;;;;10373429;28;20512;-58
2023/01/14 08:23:14;;;;;;;5.80;5.15;;;;;;;;;;10376177;28;20084;-60
2023/01/14 08:28:15;;;;;;;5.43;4.80;;;;;;;;;;10379342;28;20029;-57
2023/01/14 08:33:15;;;;;;;7.03;4.72;;;;;;;;;;10374722;28;20026;-56
2023/01/14 08:38:16;;;;;;;6.72;5.38;;;;;;;;;;10330879;28;20054;-59
2023/01/14 08:43:17;;;;;;;8.38;5.03;;;;;;;;;;10324757;28;20050;-59
2023/01/14 08:48:17;;;;;;;6.47;4.97;;;;;;;;;;10328539;28;20030;-59
2023/01/14 08:54:01;;;;;;;5.28;4.75;;;;;;;;;;10333803;28;20045;-57
2023/01/14 08:59:02;;;;;;;6.85;4.50;;;;;;;;;;10295546;28;20394;-59
2023/01/14 09:04:03;;;;;;;6.40;4.70;;;;;;;;;;10301738;28;20026;-59
2023/01/14 09:19:53;;;;;;;13.93;5.40;;;;;;;;;;10333810;28;19965;-65
2023/01/14 09:24:54;;;;;;;11.98;6.80;;;;;;;;;;10325611;28;20030;-55
2023/01/14 09:29:55;;;;;;;16.33;6.93;;;;;;;;;;10327152;28;20071;-64
2023/01/14 09:34:55;;;;;;;21.77;6.90;;;;;;;;;;10319336;28;20033;-60
2023/01/14 09:39:56;;;;;;;16.27;7.07;;;;;;;;;;10328164;28;20019;-62
2023/01/14 09:45:14;;;;;;;28.95;7.78;;;;;;;;;;10332543;28;20042;-62
2023/01/14 09:50:24;;;;;;;17.60;7.15;;;;;;;;;;10326512;28;20069;-60
2023/01/14 09:55:40;;;;;;;21.48;8.15;;;;;;;;;;10331711;28;20164;-62
2023/01/14 10:01:04;;;;;;;21.67;7.70;;;;;;;;;;10323630;28;20014;-62
2023/01/14 10:06:13;;;;;;;17.92;6.82;;;;;;;;;;10322917;28;20058;-62
2023/01/14 10:11:14;;;;;;;15.65;6.68;;;;;;;;;;10325856;28;20035;-62
2023/01/14 10:16:39;;;;;;;22.15;7.70;;;;;;;;;;10327516;28;20030;-61
2023/01/14 10:21:57;;;;;;;24.33;6.93;;;;;;;;;;10303296;28;20034;-56
2023/01/14 10:26:58;;;;;;;19.08;7.85;;;;;;;;;;10321755;28;20034;-50
2023/01/14 10:32:01;;;;;;;21.55;7.30;;;;;;;;;;10315052;28;20113;-55
2023/01/14 10:37:02;;;;;;;20.15;7.00;;;;;;;;;;11096112;23;20497;-46
2023/01/14 10:42:05;;;;;;;24.77;8.10;;;;;;;;;;10272613;28;20033;-46
2023/01/14 10:47:16;;;;;;;15.00;6.82;;;;;;;;;;10256786;28;20490;-44
2023/01/14 10:52:20;;;;;;;14.52;7.18;;;;;;;;;;10235297;28;21239;-51
2023/01/14 10:57:21;;;;;;;15.10;7.18;;;;;;;;;;10245633;28;20035;-59
2023/01/14 11:02:43;;;;;;;15.07;7.57;;;;;;;;;;10223660;28;20498;-59
2023/01/14 11:07:50;;;;;;;16.00;7.13;;;;;;;;;;10236586;28;20023;-57
2023/01/14 11:13:16;;;;;;;14.70;7.05;;;;;;;;;;10246960;28;20089;-60
2023/01/14 11:18:19;;;;;;;14.93;7.40;;;;;;;;;;10247129;28;20019;-60
2023/01/14 11:23:42;;;;;;;14.88;6.25;;;;;;;;;;10247854;28;20031;-58
2023/01/14 11:28:46;;;;;;;11.30;6.53;;;;;;;;;;10246097;28;20031;-60
2023/01/14 11:33:52;;;;;;;11.25;7.00;;;;;;;;;;10254414;28;20471;-58
2023/01/14 11:38:56;;;;;;;11.65;6.22;;;;;;;;;;10229478;28;20506;-60
2023/01/14 11:44:23;;;;;;;8.73;5.93;;;;;;;;;;10248366;28;20058;-58
2023/01/14 11:49:25;;;;;;;12.70;6.30;;;;;;;;;;10239756;28;20047;-58
2023/01/14 11:54:43;;;;;;;14.18;6.07;;;;;;;;;;10247543;28;20117;-58
2023/01/14 11:59:45;;;;;;;9.33;5.80;;;;;;;;;;10243569;28;20047;-57
2023/01/14 12:04:57;;;;;;;10.20;5.88;;;;;;;;;;10235512;28;20031;-59
2023/01/14 12:10:06;;;;;;;11.27;5.95;;;;;;;;;;10243332;28;20035;-59
2023/01/14 12:20:34;;;;;;;8.18;6.07;;;;;;;;;;10241469;28;20099;-59
2023/01/14 12:25:41;;;;;;;13.05;5.55;;;;;;;;;;10243315;28;20031;-60
2023/01/14 12:30:56;;;;;;;11.52;5.85;;;;;;;;;;10242442;28;20168;-60
2023/01/14 12:36:08;;;;;;;9.50;4.97;;;;;;;;;;10256890;28;20471;-59
2023/01/14 12:46:34;;;;;;;9.93;4.93;;;;;;;;;;10236058;28;20043;-53
2023/01/14 12:51:39;;;;;;;8.07;5.47;;;;;;;;;;10244479;28;20031;-59
2023/01/14 12:56:51;;;;;;;10.38;5.05;;;;;;;;;;10239371;28;20094;-56
2023/01/14 13:02:40;;;;;;;7.90;5.20;;;;;;;;;;10254017;28;20086;-58
2023/01/14 13:07:52;;;;;;;9.27;5.05;;;;;;;;;;10158923;29;20424;-55
2023/01/14 13:12:52;;;;;;;11.00;4.85;;;;;;;;;;10159082;29;20060;-57
2023/01/14 13:17:59;;;;;;;15.38;5.82;;;;;;;;;;10158066;29;20036;-60
2023/01/14 13:23:00;;;;;;;8.65;5.03;;;;;;;;;;10159060;29;20431;-56
2023/01/14 13:28:21;;;;;;;18.25;6.20;;;;;;;;;;10161339;29;20044;-59
2023/01/14 13:33:32;;;;;;;8.93;5.10;;;;;;;;;;10148728;29;20035;-56
2023/01/14 13:38:34;;;;;;;9.77;5.18;;;;;;;;;;10173172;29;20051;-59
2023/01/14 13:43:48;;;;;;;13.23;5.03;;;;;;;;;;10243043;28;20031;-58
2023/01/14 13:48:54;;;;;;;8.07;4.90;;;;;;;;;;10229006;28;20031;-57
2023/01/14 13:54:04;;;;;;;13.07;4.97;;;;;;;;;;10250986;28;20031;-56
2023/01/14 13:59:14;;;;;;;9.52;5.22;;;;;;;;;;10253606;28;20035;-59
2023/01/14 14:04:57;;;;;;;15.68;4.88;;;;;;;;;;10252604;28;20139;-59
2023/01/14 14:10:02;;;;;;;12.02;4.68;;;;;;;;;;10252737;28;20125;-58
2023/01/14 14:15:23;;;;;;;6.45;4.38;;;;;;;;;;10251085;28;20034;-57
2023/01/14 14:20:34;;;;;;;11.18;5.15;;;;;;;;;;10251293;28;20059;-51
2023/01/14 14:25:43;;;;;;;12.23;4.43;;;;;;;;;;10251104;28;20074;-59
2023/01/14 14:30:48;;;;;;;;;;;;;;;;;;10248560;28;20027;-45
2023/01/14 14:35:48;;;;;;;6.93;4.03;;;;;;;;;;10266450;28;19918;-46
2023/01/14 14:40:49;;;;;;;5.95;4.53;;;;;;;;;;10251798;28;20065;-46
2023/01/14 14:46:07;;;;;;;7.75;4.22;;;;;;;;;;10257294;28;20035;-47
2023/01/14 14:51:27;;;;;;;10.02;4.80;;;;;;;;;;10226403;28;20050;-47
2023/01/14 14:56:30;;;;;;;7.28;4.10;;;;;;;;;;10246023;28;20413;-51
2023/01/14 15:01:36;;;;;;;5.28;3.97;;;;;;;;;;10252059;28;20023;-47
2023/01/14 15:06:36;;;;;;;8.32;4.13;;;;;;;;;;10249296;28;20514;-49
2023/01/14 15:11:43;;;;;;;5.72;4.20;;;;;;;;;;10235568;28;20078;-47
2023/01/14 15:16:50;;;;;;;7.78;3.95;;;;;;;;;;10241739;28;20090;-48
2023/01/14 15:21:53;;;;;;;7.93;3.90;;;;;;;;;;10251227;28;20110;-47
2023/01/14 15:26:58;;;;;;;7.10;4.50;;;;;;;;;;10235066;28;20113;-45
2023/01/14 15:32:35;;;;;;;7.88;3.78;;;;;;;;;;10228226;28;20467;-47
2023/01/14 15:37:36;;;;;;;4.85;3.80;;;;;;;;;;10223791;28;20043;-47
2023/01/14 15:42:39;;;;;;;7.72;4.15;;;;;;;;;;10248346;28;20034;-46
2023/01/14 15:47:40;;;;;;;6.30;4.28;;;;;;;;;;10246531;28;20037;-47
2023/01/14 15:52:42;;;;;;;4.93;3.90;;;;;;;;;;10234827;28;20035;-45
2023/01/14 15:57:44;;;;;;;4.30;3.70;;;;;;;;;;10247833;28;20090;-45
2023/01/14 16:02:45;;;;;;;5.03;3.65;;;;;;;;;;10252715;28;20045;-49
2023/01/14 16:07:47;;;;;;;4.95;4.03;;;;;;;;;;10274774;28;20051;-50
2023/01/14 16:12:48;;;;;;;6.13;3.70;;;;;;;;;;10243179;28;20066;-46
2023/01/14 16:17:49;;;;;;;5.20;3.42;;;;;;;;;;10241821;28;20167;-45
2023/01/14 16:22:50;;;;;;;7.45;4.00;;;;;;;;;;10238547;28;20031;-46
2023/01/14 16:27:50;;;;;;;5.05;3.53;;;;;;;;;;10233509;28;20414;-46
2023/01/14 16:32:51;;;;;;;5.43;3.92;;;;;;;;;;10237774;28;20494;-45
2023/01/14 16:37:52;;;;;;;4.78;3.60;;;;;;;;;;10236873;28;20055;-45
2023/01/14 16:42:53;;;;;;;4.45;3.70;;;;;;;;;;10242312;28;20402;-49
2023/01/14 16:47:55;;;;;;;8.23;4.25;;;;;;;;;;10228343;28;20443;-49
2023/01/14 16:52:55;;;;;;;8.10;4.00;;;;;;;;;;10241245;28;20027;-55
2023/01/14 16:57:56;;;;;;;11.98;4.30;;;;;;;;;;10244331;28;20516;-49
2023/01/14 17:02:57;;;;;;;9.23;4.30;;;;;;;;;;10243601;28;20470;-54
2023/01/14 17:07:57;;;;;;;5.75;3.78;;;;;;;;;;10239846;28;20019;-59
2023/01/14 17:12:58;;;;;;;3.78;3.22;;;;;;;;;;10242854;28;20363;-56
2023/01/14 17:17:59;;;;;;;5.90;3.92;;;;;;;;;;10243219;28;20439;-51
2023/01/14 17:23:01;;;;;;;5.72;4.00;;;;;;;;;;10242769;28;20386;-53
2023/01/14 17:28:02;;;;;;;17.63;5.38;;;;;;;;;;10248473;28;20579;-47
2023/01/14 17:33:03;;;;;;;14.90;5.25;;;;;;;;;;10239589;28;20031;-49
2023/01/14 17:38:03;;;;;;;15.40;4.40;;;;;;;;;;10250494;28;20051;-52
2023/01/14 17:43:04;;;;;;;13.70;5.18;;;;;;;;;;10251850;28;20036;-54
2023/01/14 17:48:04;;;;;;;10.60;4.80;;;;;;;;;;10225425;28;20056;-45
2023/01/14 17:53:05;;;;;;;17.70;4.70;;;;;;;;;;10251163;28;20506;-50
2023/01/14 17:58:06;;;;;;;12.50;5.30;;;;;;;;;;10249687;28;20451;-46
2023/01/14 18:03:07;;;;;;;14.48;4.65;;;;;;;;;;10251540;28;20050;-45
2023/01/14 18:08:07;;;;;;;11.35;4.68;;;;;;;;;;10252439;28;20031;-46
2023/01/14 18:13:08;;;;;;;10.30;4.43;;;;;;;;;;10253051;28;20043;-46
2023/01/14 18:18:08;;;;;;;26.23;4.45;;;;;;;;;;10262162;28;20045;-45
2023/01/14 18:23:09;;;;;;;10.43;4.35;;;;;;;;;;10257195;28;20027;-46
2023/01/14 18:28:09;;;;;;;12.65;4.75;;;;;;;;;;10253705;28;20030;-45
2023/01/14 18:33:10;;;;;;;7.82;4.47;;;;;;;;;;10259994;28;20586;-45
2023/01/14 18:38:12;;;;;;;11.25;4.63;;;;;;;;;;10249568;28;20042;-47
2023/01/14 18:43:12;;;;;;;9.38;4.70;;;;;;;;;;10256432;28;20031;-46
2023/01/14 18:48:13;;;;;;;4.97;4.22;;;;;;;;;;10248028;28;20035;-45
2023/01/14 18:53:13;;;;;;;7.75;4.53;;;;;;;;;;10247328;28;20023;-46
2023/01/14 18:58:14;;;;;;;6.78;4.22;;;;;;;;;;10235625;28;20046;-45
2023/01/14 19:03:15;;;;;;;9.82;4.72;;;;;;;;;;10247018;28;20031;-46
2023/01/14 19:08:15;;;;;;;10.25;4.75;;;;;;;;;;10248950;28;20024;-47
2023/01/14 19:13:16;;;;;;;8.93;4.85;;;;;;;;;;10247345;28;20027;-47
2023/01/14 19:18:18;;;;;;;8.07;4.32;;;;;;;;;;10229645;28;20036;-46
2023/01/14 19:23:19;;;;;;;5.78;4.18;;;;;;;;;;10236322;28;20038;-46
2023/01/14 19:28:19;;;;;;;8.77;5.20;;;;;;;;;;10232043;28;20414;-45
2023/01/14 19:33:20;;;;;;;7.93;4.13;;;;;;;;;;10242858;28;20407;-45
2023/01/14 19:38:20;;;;;;;9.38;4.47;;;;;;;;;;10246612;28;20447;-45
2023/01/14 19:43:21;;;;;;;6.68;4.25;;;;;;;;;;10246642;28;20586;-45
2023/01/14 19:48:23;;;;;;;7.43;4.72;;;;;;;;;;10235190;28;20443;-45
2023/01/14 19:53:23;;;;;;;5.60;3.85;;;;;;;;;;10238334;28;20106;-45
2023/01/14 19:58:24;;;;;;;7.18;4.15;;;;;;;;;;10248138;28;20039;-45
2023/01/14 20:03:25;;;;;;;6.00;4.53;;;;;;;;;;10240520;28;20107;-45
2023/01/14 20:08:26;;;;;;;8.32;4.18;;;;;;;;;;10237645;28;20046;-45
2023/01/14 20:13:26;;;;;;;7.38;4.45;;;;;;;;;;10231463;28;20597;-45
2023/01/14 20:18:27;;;;;;;6.53;4.13;;;;;;;;;;10227942;28;20042;-48
2023/01/14 20:23:29;;;;;;;7.97;4.68;;;;;;;;;;10227155;28;20519;-50
2023/01/14 20:28:30;;;;;;;15.70;5.60;;;;;;;;;;10227971;28;20031;-46
2023/01/14 20:33:31;;;;;;;12.57;6.13;;;;;;;;;;10227964;28;20031;-45
2023/01/14 20:38:33;;;;;;;7.63;5.43;;;;;;;;;;10214210;28;20046;-45
2023/01/14 20:43:34;;;;;;;16.60;6.30;;;;;;;;;;10216435;28;20479;-48
2023/01/14 20:48:34;;;;;;;24.65;6.38;;;;;;;;;;10222576;28;20058;-46
2023/01/14 20:53:35;;;;;;;22.13;6.53;;;;;;;;;;10220383;28;20038;-54
2023/01/14 21:03:38;;;;;;;13.95;6.75;;;;;;;;;;10258637;28;20024;-46
2023/01/14 21:08:40;;;;;;;19.92;7.28;;;;;;;;;;10253741;28;20062;-47
2023/01/14 21:24:18;;;;;;;;;;;;;;;;;;10230903;28;20019;-47
2023/01/14 21:29:19;;;;;;;20.13;7.50;;;;;;;;;;10238926;28;19919;-45
2023/01/14 21:34:20;;;;;;;11.45;7.25;;;;;;;;;;10232171;28;20442;-47
2023/01/14 21:39:20;;;;;;;12.77;6.88;;;;;;;;;;10235647;28;20052;-46
2023/01/14 21:44:21;;;;;;;13.68;6.88;;;;;;;;;;10246277;28;20035;-46
2023/01/14 21:49:21;;;;;;;14.57;6.75;;;;;;;;;;10232267;28;20032;-47
2023/01/14 21:54:22;;;;;;;13.43;6.80;;;;;;;;;;10235675;28;20053;-47
2023/01/14 21:59:23;;;;;;;15.63;7.35;;;;;;;;;;10249098;28;20050;-48
2023/01/14 22:04:26;;;;;;;12.02;7.15;;;;;;;;;;10241513;28;20027;-47
2023/01/14 22:09:26;;;;;;;13.13;6.93;;;;;;;;;;10237324;28;20472;-47
2023/01/14 22:14:31;;;;;;;14.20;7.38;;;;;;;;;;10233637;28;20089;-46
2023/01/14 22:19:33;;;;;;;9.18;6.32;;;;;;;;;;10226851;28;20063;-46
2023/01/14 22:24:33;;;;;;;11.55;6.60;;;;;;;;;;10241946;28;20152;-47
2023/01/14 22:29:34;;;;;;;9.23;6.22;;;;;;;;;;10251439;28;20615;-50
2023/01/14 22:34:34;;;;;;;15.75;7.97;;;;;;;;;;10249594;28;20471;-46
2023/01/14 22:39:35;;;;;;;10.60;6.50;;;;;;;;;;10246027;28;20051;-47
2023/01/14 22:44:36;;;;;;;13.60;7.00;;;;;;;;;;10260134;28;20031;-47
2023/01/14 22:49:37;;;;;;;10.27;6.43;;;;;;;;;;10246007;28;20042;-47
2023/01/14 22:54:38;;;;;;;17.55;6.45;;;;;;;;;;10238132;28;20490;-48
2023/01/14 22:59:38;;;;;;;14.82;6.38;;;;;;;;;;10232080;28;20039;-48
2023/01/14 23:04:39;;;;;;;10.65;6.35;;;;;;;;;;10236899;28;20286;-47
2023/01/14 23:09:40;;;;;;;12.02;6.70;;;;;;;;;;10242658;28;20040;-48
2023/01/14 23:14:40;;;;;;;12.25;5.97;;;;;;;;;;10230057;28;20031;-47
2023/01/14 23:19:41;;;;;;;8.82;5.80;;;;;;;;;;10234729;28;20043;-48
2023/01/14 23:24:44;;;;;;;9.10;6.30;;;;;;;;;;10233331;28;20031;-47
2023/01/14 23:29:44;;;;;;;10.15;5.88;;;;;;;;;;10233967;28;20131;-49
2023/01/14 23:34:45;;;;;;;9.57;6.72;;;;;;;;;;10233207;28;20027;-50
2023/01/14 23:39:46;;;;;;;11.10;6.03;;;;;;;;;;10229788;28;20043;-47
2023/01/14 23:44:47;;;;;;;9.35;5.53;;;;;;;;;;10230882;28;20034;-51
2023/01/14 23:49:48;;;;;;;11.20;5.72;;;;;;;;;;10233314;28;20027;-44
2023/01/14 23:54:48;;;;;;;8.35;5.80;;;;;;;;;;10232140;28;20039;-46
2023/01/14 23:59:49;;;;;;;11.05;5.90;;;;;;;;;;10231230;28;20043;-45
